Time;durP1;ratioP1;P1;durP2;ratioP2;P2;SDS_P1;SDS_P2;PMS_P1;PMS_P2;Temp;Humidity;BMP_temperature;BMP_pressure;BME280_temperature;BME280_humidity;BME280_pressure;Samples;Min_cycle;Max_cycle;Signal;HPM_P1;HPM_P2
2022/04/08 00:02:08;;;;;;;6.03;1.50;;;;;;;;;;5051453;28;20040;-64
2022/04/08 00:04:34;;;;;;;4.07;1.73;;;;;;;;;;5038498;28;20047;-65
2022/04/08 00:06:59;;;;;;;5.40;1.80;;;;;;;;;;5047679;28;20029;-64
2022/04/08 00:09:25;;;;;;;5.95;2.15;;;;;;;;;;5035238;28;20045;-65
2022/04/08 00:11:50;;;;;;;5.25;1.88;;;;;;;;;;5031631;28;20036;-64
2022/04/08 00:14:18;;;;;;;8.00;1.83;;;;;;;;;;5044419;28;20398;-65
2022/04/08 00:16:44;;;;;;;2.72;1.70;;;;;;;;;;5050085;28;20078;-65
2022/04/08 00:19:10;;;;;;;7.70;2.03;;;;;;;;;;5050146;28;20033;-65
2022/04/08 00:21:35;;;;;;;9.05;2.45;;;;;;;;;;5050175;28;20466;-65
2022/04/08 00:24:01;;;;;;;2.45;1.30;;;;;;;;;;5048533;28;20482;-65
2022/04/08 00:26:26;;;;;;;4.65;1.70;;;;;;;;;;5050610;28;20025;-66
2022/04/08 00:28:51;;;;;;;3.38;1.70;;;;;;;;;;5049290;28;20048;-64
2022/04/08 00:31:17;;;;;;;5.63;1.85;;;;;;;;;;5051074;28;20398;-64
2022/04/08 00:33:42;;;;;;;7.10;2.05;;;;;;;;;;5049409;28;20036;-64
2022/04/08 00:36:08;;;;;;;4.10;1.30;;;;;;;;;;5049551;28;20407;-64
2022/04/08 00:38:33;;;;;;;9.38;2.00;;;;;;;;;;5051043;28;20025;-65
2022/04/08 00:40:59;;;;;;;8.20;1.90;;;;;;;;;;5045793;28;20060;-66
2022/04/08 00:43:38;;;;;;;6.85;2.10;;;;;;;;;;5049886;28;20041;-66
2022/04/08 00:46:09;;;;;;;5.22;1.70;;;;;;;;;;5041768;28;20041;-65
2022/04/08 00:48:36;;;;;;;5.47;1.75;;;;;;;;;;5050739;28;20045;-65
2022/04/08 00:51:03;;;;;;;4.97;1.80;;;;;;;;;;5053008;28;20131;-64
2022/04/08 00:53:30;;;;;;;3.05;1.52;;;;;;;;;;5054065;28;20033;-65
2022/04/08 00:55:56;;;;;;;7.55;1.98;;;;;;;;;;5054392;28;20033;-65
2022/04/08 00:58:23;;;;;;;4.22;1.42;;;;;;;;;;5054826;28;20051;-64
2022/04/08 01:00:48;;;;;;;5.57;1.80;;;;;;;;;;5047318;28;20083;-65
2022/04/08 01:03:14;;;;;;;4.05;1.30;;;;;;;;;;5046096;28;20372;-64
2022/04/08 01:05:39;;;;;;;6.38;1.40;;;;;;;;;;5033393;28;20035;-65
2022/04/08 01:08:10;;;;;;;5.10;1.65;;;;;;;;;;5034711;28;20101;-65
2022/04/08 01:10:36;;;;;;;3.03;1.25;;;;;;;;;;5033601;28;20389;-65
2022/04/08 01:13:02;;;;;;;7.45;1.40;;;;;;;;;;5052910;28;20042;-65
2022/04/08 01:15:28;;;;;;;5.05;1.52;;;;;;;;;;5051838;28;20494;-67
2022/04/08 01:17:53;;;;;;;5.78;1.80;;;;;;;;;;5052871;28;20037;-65
2022/04/08 01:20:19;;;;;;;5.72;1.70;;;;;;;;;;5053394;28;20052;-65
2022/04/08 01:22:44;;;;;;;4.85;1.50;;;;;;;;;;5050471;28;20530;-65
2022/04/08 01:25:11;;;;;;;7.68;1.75;;;;;;;;;;5054016;28;20029;-65
2022/04/08 01:27:38;;;;;;;7.00;1.58;;;;;;;;;;5033477;28;20493;-66
2022/04/08 01:30:08;;;;;;;6.57;1.50;;;;;;;;;;5034326;28;20104;-65
2022/04/08 01:32:34;;;;;;;5.32;1.30;;;;;;;;;;5050034;28;20025;-65
2022/04/08 01:35:00;;;;;;;9.35;1.70;;;;;;;;;;5050602;28;20040;-65
2022/04/08 01:37:25;;;;;;;3.78;1.13;;;;;;;;;;5053841;28;20413;-65
2022/04/08 01:39:51;;;;;;;6.95;1.52;;;;;;;;;;5052400;28;20055;-65
2022/04/08 01:42:21;;;;;;;4.93;1.42;;;;;;;;;;5053065;28;20367;-65
2022/04/08 01:44:48;;;;;;;8.23;1.45;;;;;;;;;;5052665;28;20037;-65
2022/04/08 01:47:13;;;;;;;5.57;1.30;;;;;;;;;;5050431;28;20475;-65
2022/04/08 01:49:39;;;;;;;6.50;1.83;;;;;;;;;;5052113;28;20110;-64
2022/04/08 01:52:04;;;;;;;3.80;1.30;;;;;;;;;;5044076;28;20470;-64
2022/04/08 01:54:30;;;;;;;9.55;2.28;;;;;;;;;;5048214;28;20450;-67
2022/04/08 01:56:55;;;;;;;3.47;1.30;;;;;;;;;;5043234;28;20028;-64
2022/04/08 01:59:21;;;;;;;9.48;2.00;;;;;;;;;;5052370;28;20128;-64
2022/04/08 02:01:46;;;;;;;5.95;1.67;;;;;;;;;;5044448;28;20030;-64
2022/04/08 02:04:12;;;;;;;7.13;1.70;;;;;;;;;;5041088;28;20033;-65
2022/04/08 02:06:40;;;;;;;3.38;1.33;;;;;;;;;;5045932;28;20025;-64
2022/04/08 02:09:07;;;;;;;9.57;1.85;;;;;;;;;;5033226;28;20125;-64
2022/04/08 02:11:33;;;;;;;11.23;1.77;;;;;;;;;;5037266;28;20151;-65
2022/04/08 02:13:58;;;;;;;11.82;2.38;;;;;;;;;;5033756;28;20072;-64
2022/04/08 02:16:24;;;;;;;9.40;1.60;;;;;;;;;;5037662;28;20082;-63
2022/04/08 02:18:50;;;;;;;5.63;1.50;;;;;;;;;;5051003;28;20225;-64
2022/04/08 02:21:19;;;;;;;4.35;1.50;;;;;;;;;;5052451;28;20045;-65
2022/04/08 02:23:49;;;;;;;8.68;1.55;;;;;;;;;;5049631;28;20097;-63
2022/04/08 02:26:16;;;;;;;4.57;1.42;;;;;;;;;;5032873;28;20110;-64
2022/04/08 02:28:42;;;;;;;5.70;1.40;;;;;;;;;;5031055;28;20040;-65
2022/04/08 02:31:07;;;;;;;4.45;1.63;;;;;;;;;;5036996;28;20032;-65
2022/04/08 02:33:33;;;;;;;5.75;1.77;;;;;;;;;;5050938;28;20039;-68
2022/04/08 02:35:58;;;;;;;10.60;1.90;;;;;;;;;;5052003;28;20383;-66
2022/04/08 02:38:24;;;;;;;6.20;1.40;;;;;;;;;;5039008;28;20037;-65
2022/04/08 02:40:49;;;;;;;8.57;2.40;;;;;;;;;;5033016;28;20600;-65
2022/04/08 02:43:15;;;;;;;8.70;1.40;;;;;;;;;;5039510;28;20076;-65
2022/04/08 02:45:40;;;;;;;9.65;1.98;;;;;;;;;;5031988;28;20041;-65
2022/04/08 02:48:05;;;;;;;6.43;1.65;;;;;;;;;;5039483;28;20121;-65
2022/04/08 02:50:31;;;;;;;11.02;1.77;;;;;;;;;;5046996;28;20064;-67
2022/04/08 02:52:56;;;;;;;4.60;1.50;;;;;;;;;;5048505;28;20036;-65
2022/04/08 02:55:21;;;;;;;8.82;1.95;;;;;;;;;;5052414;28;20037;-65
2022/04/08 02:57:48;;;;;;;7.20;1.85;;;;;;;;;;5049335;28;20029;-65
2022/04/08 03:00:15;;;;;;;5.30;1.58;;;;;;;;;;5052260;28;20024;-65
2022/04/08 03:02:40;;;;;;;6.65;2.15;;;;;;;;;;5050298;28;20037;-65
2022/04/08 03:05:06;;;;;;;8.43;1.75;;;;;;;;;;5042265;28;20475;-65
2022/04/08 03:07:32;;;;;;;9.52;1.90;;;;;;;;;;5033584;28;20090;-67
2022/04/08 03:09:58;;;;;;;8.27;2.28;;;;;;;;;;5032237;28;20536;-65
2022/04/08 03:12:23;;;;;;;5.43;1.75;;;;;;;;;;5052003;28;20108;-65
2022/04/08 03:14:49;;;;;;;6.40;1.42;;;;;;;;;;5051146;28;20163;-65
2022/04/08 03:17:14;;;;;;;10.27;1.65;;;;;;;;;;5036510;28;20037;-65
2022/04/08 03:19:40;;;;;;;6.90;1.75;;;;;;;;;;5049770;28;20389;-65
2022/04/08 03:22:06;;;;;;;7.28;1.88;;;;;;;;;;5035079;28;20061;-65
2022/04/08 03:24:32;;;;;;;10.10;1.92;;;;;;;;;;5031940;28;20033;-65
2022/04/08 03:26:57;;;;;;;12.25;1.90;;;;;;;;;;5031494;28;20025;-66
2022/04/08 03:29:23;;;;;;;6.47;1.60;;;;;;;;;;5045516;28;20036;-66
2022/04/08 03:31:49;;;;;;;5.43;1.50;;;;;;;;;;5051198;28;20444;-66
2022/04/08 03:34:14;;;;;;;4.80;1.42;;;;;;;;;;5050034;28;20029;-64
2022/04/08 03:36:39;;;;;;;10.68;1.88;;;;;;;;;;5032048;28;20033;-63
2022/04/08 03:39:05;;;;;;;5.00;1.95;;;;;;;;;;5047665;28;20486;-64
2022/04/08 03:41:30;;;;;;;9.23;1.95;;;;;;;;;;5050867;28;20037;-65
2022/04/08 03:43:56;;;;;;;7.28;2.35;;;;;;;;;;5049587;28;20025;-64
2022/04/08 03:46:21;;;;;;;9.65;2.50;;;;;;;;;;5050703;28;20041;-65
2022/04/08 03:48:46;;;;;;;6.80;1.83;;;;;;;;;;5050509;28;20055;-65
2022/04/08 03:51:11;;;;;;;9.18;2.47;;;;;;;;;;5050358;28;20029;-65
2022/04/08 03:53:37;;;;;;;6.35;1.55;;;;;;;;;;5049703;28;20064;-66
2022/04/08 03:56:04;;;;;;;8.00;2.05;;;;;;;;;;5050946;28;20040;-65
2022/04/08 03:58:29;;;;;;;10.80;1.65;;;;;;;;;;5051962;28;20455;-65
2022/04/08 04:00:55;;;;;;;10.63;2.10;;;;;;;;;;5050427;28;20089;-65
2022/04/08 04:03:21;;;;;;;9.65;2.60;;;;;;;;;;5051053;28;20044;-65
2022/04/08 04:05:46;;;;;;;11.25;2.15;;;;;;;;;;5049058;28;20126;-65
2022/04/08 04:08:18;;;;;;;11.70;2.30;;;;;;;;;;5051535;28;20057;-65
2022/04/08 04:10:47;;;;;;;5.80;1.67;;;;;;;;;;5050930;28;20117;-65
2022/04/08 04:13:15;;;;;;;10.32;2.00;;;;;;;;;;5051114;28;20040;-65
2022/04/08 04:15:41;;;;;;;5.88;2.00;;;;;;;;;;5049921;28;20029;-65
2022/04/08 04:18:08;;;;;;;7.03;1.98;;;;;;;;;;5051561;28;20029;-65
2022/04/08 04:20:33;;;;;;;8.85;1.65;;;;;;;;;;5051519;28;20072;-66
2022/04/08 04:22:59;;;;;;;9.63;2.03;;;;;;;;;;5049740;28;20068;-66
2022/04/08 04:25:25;;;;;;;9.25;1.73;;;;;;;;;;5055233;28;20158;-66
2022/04/08 04:27:51;;;;;;;14.23;2.03;;;;;;;;;;5053461;28;20029;-65
2022/04/08 04:30:16;;;;;;;9.75;2.20;;;;;;;;;;5054807;28;20032;-66
2022/04/08 04:32:42;;;;;;;4.15;1.67;;;;;;;;;;5054043;28;20056;-66
2022/04/08 04:35:08;;;;;;;10.35;2.03;;;;;;;;;;5055224;28;20044;-66
2022/04/08 04:37:34;;;;;;;6.30;1.80;;;;;;;;;;5055366;28;20025;-66
2022/04/08 04:40:01;;;;;;;10.25;2.20;;;;;;;;;;5054196;28;20059;-66
2022/04/08 04:42:27;;;;;;;3.38;1.63;;;;;;;;;;5055279;28;20033;-66
2022/04/08 04:44:53;;;;;;;13.30;2.15;;;;;;;;;;5054228;28;20100;-66
2022/04/08 04:47:19;;;;;;;5.57;1.80;;;;;;;;;;5054441;28;20037;-65
2022/04/08 04:49:44;;;;;;;12.60;3.47;;;;;;;;;;5054035;28;20036;-66
2022/04/08 04:52:10;;;;;;;8.32;2.42;;;;;;;;;;5053532;28;20466;-66
2022/04/08 04:54:35;;;;;;;9.07;2.03;;;;;;;;;;5054614;28;20029;-65
2022/04/08 04:57:00;;;;;;;12.80;2.53;;;;;;;;;;5053622;28;20094;-65
2022/04/08 04:59:26;;;;;;;4.95;1.73;;;;;;;;;;5053685;28;20033;-66
2022/04/08 05:01:51;;;;;;;7.07;2.15;;;;;;;;;;5053563;28;20029;-66
2022/04/08 05:04:16;;;;;;;7.50;1.85;;;;;;;;;;5054289;28;20073;-65
2022/04/08 05:06:42;;;;;;;7.10;1.95;;;;;;;;;;5053613;28;20359;-66
2022/04/08 05:09:07;;;;;;;3.97;1.52;;;;;;;;;;5054491;28;20025;-65
2022/04/08 05:11:33;;;;;;;7.63;2.10;;;;;;;;;;5054678;28;20032;-65
2022/04/08 05:14:00;;;;;;;9.40;2.17;;;;;;;;;;5054380;28;20037;-65
2022/04/08 05:16:26;;;;;;;11.40;2.60;;;;;;;;;;5053682;28;20412;-65
2022/04/08 05:18:51;;;;;;;10.13;2.42;;;;;;;;;;5053802;28;20056;-66
2022/04/08 05:21:16;;;;;;;11.90;2.17;;;;;;;;;;5054617;28;20497;-65
2022/04/08 05:23:42;;;;;;;7.32;1.80;;;;;;;;;;5053995;28;20481;-66
2022/04/08 05:26:07;;;;;;;12.02;2.58;;;;;;;;;;5051732;28;20029;-65
2022/04/08 05:28:33;;;;;;;6.97;1.80;;;;;;;;;;5053991;28;20391;-65
2022/04/08 05:30:58;;;;;;;6.05;1.95;;;;;;;;;;5052922;28;20036;-66
2022/04/08 05:33:23;;;;;;;14.20;2.58;;;;;;;;;;5053672;28;20029;-66
2022/04/08 05:35:52;;;;;;;5.72;1.90;;;;;;;;;;5051776;28;20028;-66
2022/04/08 05:38:17;;;;;;;6.40;1.92;;;;;;;;;;5054145;28;20029;-66
2022/04/08 05:40:43;;;;;;;8.25;2.33;;;;;;;;;;5053690;28;20025;-66
2022/04/08 05:43:09;;;;;;;8.88;2.85;;;;;;;;;;5053374;28;20029;-66
2022/04/08 05:45:34;;;;;;;10.50;2.08;;;;;;;;;;5053544;28;20032;-66
2022/04/08 05:48:04;;;;;;;11.25;2.35;;;;;;;;;;5052635;28;20216;-66
2022/04/08 05:50:30;;;;;;;7.80;2.45;;;;;;;;;;5053606;28;20075;-64
2022/04/08 05:52:55;;;;;;;14.48;2.40;;;;;;;;;;5054401;28;20033;-66
2022/04/08 05:55:21;;;;;;;9.07;2.33;;;;;;;;;;5053398;28;20530;-66
2022/04/08 05:57:47;;;;;;;9.98;2.53;;;;;;;;;;5052288;28;20554;-66
2022/04/08 06:00:14;;;;;;;10.98;2.15;;;;;;;;;;5053222;28;20091;-66
2022/04/08 06:02:45;;;;;;;11.77;2.67;;;;;;;;;;5053328;28;20471;-66
2022/04/08 06:05:11;;;;;;;5.13;2.08;;;;;;;;;;5053684;28;20078;-66
2022/04/08 06:07:56;;;;;;;9.85;2.97;;;;;;;;;;5053424;28;20082;-65
2022/04/08 06:10:23;;;;;;;11.68;3.10;;;;;;;;;;5052006;28;20028;-65
2022/04/08 06:12:52;;;;;;;9.27;2.80;;;;;;;;;;5052655;28;20083;-66
2022/04/08 06:15:18;;;;;;;9.90;2.78;;;;;;;;;;5051818;28;20037;-66
2022/04/08 06:17:44;;;;;;;15.25;3.50;;;;;;;;;;5051457;28;20033;-65
2022/04/08 06:20:11;;;;;;;9.38;2.95;;;;;;;;;;5052227;28;20561;-65
2022/04/08 06:22:40;;;;;;;10.32;2.88;;;;;;;;;;5053400;28;20029;-65
2022/04/08 06:25:12;;;;;;;10.32;3.42;;;;;;;;;;5052286;28;20137;-65
2022/04/08 06:27:38;;;;;;;7.28;3.10;;;;;;;;;;5052852;28;20029;-65
2022/04/08 06:30:09;;;;;;;10.50;3.08;;;;;;;;;;5052090;28;20033;-66
2022/04/08 06:32:35;;;;;;;9.90;3.13;;;;;;;;;;5050484;28;20029;-65
2022/04/08 06:35:00;;;;;;;10.30;3.58;;;;;;;;;;5048731;28;20048;-66
2022/04/08 06:37:27;;;;;;;8.93;2.97;;;;;;;;;;5052560;28;20040;-65
2022/04/08 06:39:53;;;;;;;9.93;3.03;;;;;;;;;;5052067;28;20029;-65
2022/04/08 06:42:18;;;;;;;8.57;3.13;;;;;;;;;;5051351;28;20394;-65
2022/04/08 06:44:43;;;;;;;7.13;3.40;;;;;;;;;;5052569;28;20033;-64
2022/04/08 06:47:09;;;;;;;13.63;3.45;;;;;;;;;;5049250;28;20071;-65
2022/04/08 06:49:34;;;;;;;14.43;3.53;;;;;;;;;;5052885;28;20147;-65
2022/04/08 06:51:59;;;;;;;11.52;3.55;;;;;;;;;;5051682;28;20029;-65
2022/04/08 06:54:25;;;;;;;8.93;2.83;;;;;;;;;;5051424;28;20041;-66
2022/04/08 06:56:51;;;;;;;10.23;3.20;;;;;;;;;;5052102;28;20082;-66
2022/04/08 06:59:17;;;;;;;11.10;4.25;;;;;;;;;;5052053;28;20087;-66
2022/04/08 07:01:42;;;;;;;9.25;2.53;;;;;;;;;;5050580;28;20441;-66
2022/04/08 07:04:08;;;;;;;10.70;3.60;;;;;;;;;;5051601;28;20025;-66
2022/04/08 07:06:33;;;;;;;10.05;3.40;;;;;;;;;;5052116;28;20033;-66
2022/04/08 07:08:58;;;;;;;9.38;3.17;;;;;;;;;;5049872;28;20033;-66
2022/04/08 07:11:24;;;;;;;10.85;3.55;;;;;;;;;;5052256;28;20036;-65
2022/04/08 07:13:50;;;;;;;9.90;3.78;;;;;;;;;;5050345;28;20033;-67
2022/04/08 07:16:15;;;;;;;10.65;2.92;;;;;;;;;;5051277;28;20143;-65
2022/04/08 07:18:40;;;;;;;9.95;3.20;;;;;;;;;;5051872;28;20037;-65
2022/04/08 07:21:06;;;;;;;9.98;3.42;;;;;;;;;;5051568;28;20060;-65
2022/04/08 07:23:32;;;;;;;7.28;2.72;;;;;;;;;;5051827;28;20086;-65
2022/04/08 07:25:58;;;;;;;12.25;3.65;;;;;;;;;;5050832;28;20041;-65
2022/04/08 07:28:24;;;;;;;10.93;3.42;;;;;;;;;;5052233;28;20094;-65
2022/04/08 07:30:51;;;;;;;10.00;3.40;;;;;;;;;;5053206;28;20029;-66
2022/04/08 07:33:16;;;;;;;12.57;3.65;;;;;;;;;;5052056;28;20051;-65
2022/04/08 07:35:42;;;;;;;11.65;3.95;;;;;;;;;;5052472;28;20055;-65
2022/04/08 07:38:07;;;;;;;10.30;3.78;;;;;;;;;;5070874;28;20036;-65
2022/04/08 07:40:33;;;;;;;9.52;3.95;;;;;;;;;;5070608;28;20040;-65
2022/04/08 07:42:58;;;;;;;11.50;4.22;;;;;;;;;;5070750;28;20032;-65
2022/04/08 07:45:27;;;;;;;10.13;4.43;;;;;;;;;;5069625;28;20427;-65
2022/04/08 07:47:57;;;;;;;13.45;4.95;;;;;;;;;;5070859;28;20047;-65
2022/04/08 07:50:22;;;;;;;9.03;4.37;;;;;;;;;;5072234;28;20032;-65
2022/04/08 07:52:48;;;;;;;15.27;5.25;;;;;;;;;;5070981;28;20039;-66
2022/04/08 07:55:13;;;;;;;10.95;4.28;;;;;;;;;;5069387;28;20024;-65
2022/04/08 07:57:46;;;;;;;10.13;4.90;;;;;;;;;;5050616;28;20037;-65
2022/04/08 08:00:19;;;;;;;10.48;5.72;;;;;;;;;;5049296;28;20033;-65
2022/04/08 08:02:45;;;;;;;14.27;6.15;;;;;;;;;;5031860;28;20476;-65
2022/04/08 08:05:11;;;;;;;13.68;6.15;;;;;;;;;;5031903;28;20042;-65
2022/04/08 08:08:03;;;;;;;13.25;6.25;;;;;;;;;;5071560;28;20035;-66
2022/04/08 08:10:30;;;;;;;11.88;6.65;;;;;;;;;;5070532;28;20078;-65
2022/04/08 08:12:56;;;;;;;10.98;6.35;;;;;;;;;;5070993;28;20055;-65
2022/04/08 08:15:23;;;;;;;12.18;5.53;;;;;;;;;;5069005;28;20484;-65
2022/04/08 08:17:49;;;;;;;10.68;6.00;;;;;;;;;;5051223;28;20026;-65
2022/04/08 08:20:16;;;;;;;10.85;6.03;;;;;;;;;;5050466;28;20131;-65
2022/04/08 08:22:42;;;;;;;7.32;4.43;;;;;;;;;;5052104;28;20033;-65
2022/04/08 08:25:09;;;;;;;11.60;5.55;;;;;;;;;;5050376;28;20041;-65
2022/04/08 08:27:52;;;;;;;12.70;6.00;;;;;;;;;;5051378;28;20029;-65
2022/04/08 08:30:18;;;;;;;13.10;5.45;;;;;;;;;;5049912;28;20037;-65
2022/04/08 08:32:45;;;;;;;8.50;4.72;;;;;;;;;;5052187;28;20056;-65
2022/04/08 08:35:15;;;;;;;15.05;5.75;;;;;;;;;;5050544;28;20033;-65
2022/04/08 08:37:41;;;;;;;12.40;5.50;;;;;;;;;;5068715;28;20032;-66
2022/04/08 08:40:08;;;;;;;6.53;3.58;;;;;;;;;;5068806;28;20478;-66
2022/04/08 08:42:38;;;;;;;7.25;4.10;;;;;;;;;;5071432;28;20039;-65
2022/04/08 08:45:05;;;;;;;7.35;4.60;;;;;;;;;;5070263;28;20024;-65
2022/04/08 08:47:31;;;;;;;6.53;3.38;;;;;;;;;;5053840;28;20087;-65
2022/04/08 08:49:57;;;;;;;6.55;3.72;;;;;;;;;;5049073;28;20032;-66
2022/04/08 08:52:23;;;;;;;6.80;3.75;;;;;;;;;;5049990;28;20029;-65
2022/04/08 08:54:49;;;;;;;7.95;3.90;;;;;;;;;;5050787;28;20032;-65
2022/04/08 08:57:16;;;;;;;8.05;4.43;;;;;;;;;;5064169;28;20186;-65
2022/04/08 08:59:42;;;;;;;9.75;5.40;;;;;;;;;;5071338;28;20028;-65
2022/04/08 09:02:08;;;;;;;6.13;3.30;;;;;;;;;;5057849;28;20091;-65
2022/04/08 09:04:40;;;;;;;9.13;3.88;;;;;;;;;;5050949;28;20463;-65
2022/04/08 09:07:06;;;;;;;4.50;2.78;;;;;;;;;;5050785;28;20033;-65
2022/04/08 09:09:32;;;;;;;11.65;4.05;;;;;;;;;;5051777;28;20505;-65
2022/04/08 09:12:12;;;;;;;9.65;3.78;;;;;;;;;;5053758;28;20075;-65
2022/04/08 09:14:37;;;;;;;7.32;3.65;;;;;;;;;;5054423;28;20036;-65
2022/04/08 09:17:03;;;;;;;5.72;3.40;;;;;;;;;;5064775;28;20035;-65
2022/04/08 09:19:33;;;;;;;9.45;4.22;;;;;;;;;;5073762;28;20033;-64
2022/04/08 09:21:59;;;;;;;8.63;3.90;;;;;;;;;;5073608;28;20382;-65
2022/04/08 09:24:25;;;;;;;7.90;3.90;;;;;;;;;;5074112;28;20056;-65
2022/04/08 09:26:52;;;;;;;9.73;4.90;;;;;;;;;;5064079;28;20106;-65
2022/04/08 09:29:19;;;;;;;10.05;4.18;;;;;;;;;;5052022;28;20036;-65
2022/04/08 09:31:48;;;;;;;7.95;4.38;;;;;;;;;;5059592;28;20473;-64
2022/04/08 09:34:16;;;;;;;7.07;3.72;;;;;;;;;;5072042;28;20033;-64
2022/04/08 09:36:42;;;;;;;7.53;3.17;;;;;;;;;;5074212;28;20037;-65
2022/04/08 09:39:10;;;;;;;7.82;3.90;;;;;;;;;;5073287;28;20055;-65
2022/04/08 09:41:48;;;;;;;7.57;4.47;;;;;;;;;;5074969;28;20105;-65
2022/04/08 09:44:23;;;;;;;9.90;4.82;;;;;;;;;;5063036;28;20216;-65
2022/04/08 09:46:49;;;;;;;6.70;3.58;;;;;;;;;;5061288;28;20021;-65
2022/04/08 09:49:14;;;;;;;8.68;4.32;;;;;;;;;;5057609;28;20025;-65
2022/04/08 09:51:40;;;;;;;7.50;3.83;;;;;;;;;;5054737;28;20071;-64
2022/04/08 09:54:09;;;;;;;7.43;4.53;;;;;;;;;;5062794;28;20390;-65
2022/04/08 09:56:36;;;;;;;8.55;4.60;;;;;;;;;;5075230;28;20111;-65
2022/04/08 09:59:12;;;;;;;5.78;3.20;;;;;;;;;;5074962;28;20028;-65
2022/04/08 10:01:39;;;;;;;5.57;2.97;;;;;;;;;;5074425;28;20029;-65
2022/04/08 10:04:07;;;;;;;8.45;3.45;;;;;;;;;;5053781;28;20489;-65
2022/04/08 10:06:34;;;;;;;9.48;4.38;;;;;;;;;;5055452;28;20021;-64
2022/04/08 10:09:00;;;;;;;6.90;3.90;;;;;;;;;;5053691;28;20033;-65
2022/04/08 10:11:47;;;;;;;6.15;3.50;;;;;;;;;;5053765;28;20029;-65
2022/04/08 10:14:30;;;;;;;7.68;3.38;;;;;;;;;;5032764;28;20082;-64
2022/04/08 10:16:57;;;;;;;6.18;2.88;;;;;;;;;;5038343;28;20144;-65
2022/04/08 10:19:23;;;;;;;8.63;2.90;;;;;;;;;;5056091;28;20033;-64
2022/04/08 10:21:52;;;;;;;5.22;2.90;;;;;;;;;;5054134;28;22257;-65
2022/04/08 10:24:23;;;;;;;7.97;3.17;;;;;;;;;;5072367;28;20028;-65
2022/04/08 10:27:05;;;;;;;5.85;2.80;;;;;;;;;;5073061;28;20142;-64
2022/04/08 10:29:33;;;;;;;7.38;2.78;;;;;;;;;;5072957;28;20028;-64
2022/04/08 10:32:15;;;;;;;5.28;2.92;;;;;;;;;;5070029;28;20033;-64
2022/04/08 10:34:40;;;;;;;;;;;;;;;;;;5053271;28;20040;-63
2022/04/08 10:37:24;;;;;;;6.82;2.60;;;;;;;;;;5052106;28;19913;-65
2022/04/08 10:39:57;;;;;;;6.05;3.13;;;;;;;;;;5044845;28;20072;-65
2022/04/08 10:42:23;;;;;;;6.75;3.20;;;;;;;;;;5039902;28;20063;-67
2022/04/08 10:44:48;;;;;;;6.18;3.33;;;;;;;;;;5049663;28;20032;-67
2022/04/08 10:47:16;;;;;;;6.53;3.15;;;;;;;;;;5051209;28;20029;-62
2022/04/08 10:49:58;;;;;;;7.53;2.47;;;;;;;;;;5070123;28;20028;-65
2022/04/08 10:52:28;;;;;;;4.53;2.10;;;;;;;;;;5071130;28;20032;-66
2022/04/08 10:55:23;;;;;;;4.75;2.20;;;;;;;;;;5072145;28;20539;-65
2022/04/08 10:57:56;;;;;;;6.20;2.60;;;;;;;;;;5067275;28;20432;-66
2022/04/08 11:00:22;;;;;;;8.10;3.70;;;;;;;;;;5071579;28;20036;-66
2022/04/08 11:02:47;;;;;;;7.97;2.97;;;;;;;;;;5065693;28;20095;-66
2022/04/08 11:05:14;;;;;;;8.02;3.30;;;;;;;;;;5051226;28;20029;-66
2022/04/08 11:07:44;;;;;;;5.55;2.47;;;;;;;;;;5051916;28;20033;-66
2022/04/08 11:10:15;;;;;;;5.70;2.38;;;;;;;;;;5036223;28;20153;-67
2022/04/08 11:12:51;;;;;;;9.35;2.47;;;;;;;;;;5039892;28;20539;-66
2022/04/08 11:15:25;;;;;;;7.00;2.55;;;;;;;;;;5051392;28;20096;-67
2022/04/08 11:17:51;;;;;;;5.57;2.20;;;;;;;;;;5055735;28;20037;-66
2022/04/08 11:20:22;;;;;;;8.05;3.17;;;;;;;;;;5070923;28;20051;-65
2022/04/08 11:22:52;;;;;;;4.50;2.00;;;;;;;;;;5063134;28;20059;-65
2022/04/08 11:25:25;;;;;;;2.83;1.70;;;;;;;;;;5050882;28;20035;-65
2022/04/08 11:28:05;;;;;;;5.22;2.13;;;;;;;;;;5051681;28;20025;-65
2022/04/08 11:30:32;;;;;;;6.65;2.03;;;;;;;;;;5051813;28;20083;-65
2022/04/08 11:33:01;;;;;;;4.28;2.00;;;;;;;;;;5055994;28;20055;-65
2022/04/08 11:35:32;;;;;;;5.93;2.05;;;;;;;;;;5051579;28;20116;-64
2022/04/08 11:37:58;;;;;;;5.40;1.52;;;;;;;;;;5057422;28;20059;-65
2022/04/08 11:40:24;;;;;;;4.07;1.50;;;;;;;;;;5069538;28;20040;-65
2022/04/08 11:42:49;;;;;;;4.35;1.77;;;;;;;;;;5070816;28;20032;-64
2022/04/08 11:45:16;;;;;;;5.15;2.20;;;;;;;;;;5049606;28;20490;-64
2022/04/08 11:47:46;;;;;;;3.45;1.95;;;;;;;;;;5055673;28;20169;-64
2022/04/08 11:50:12;;;;;;;4.75;2.10;;;;;;;;;;5050576;28;20036;-64
2022/04/08 11:52:38;;;;;;;5.75;2.42;;;;;;;;;;5053088;28;20040;-65
2022/04/08 11:55:08;;;;;;;5.75;2.00;;;;;;;;;;5050747;28;20108;-66
2022/04/08 11:57:34;;;;;;;5.33;2.67;;;;;;;;;;5050117;28;20052;-66
2022/04/08 12:00:03;;;;;;;6.10;2.55;;;;;;;;;;5050768;28;20474;-65
2022/04/08 12:02:30;;;;;;;5.78;3.35;;;;;;;;;;5055540;28;20086;-65
2022/04/08 12:04:56;;;;;;;9.10;3.20;;;;;;;;;;5030191;28;20458;-65
2022/04/08 12:07:30;;;;;;;7.70;3.08;;;;;;;;;;5030198;28;20060;-65
2022/04/08 12:09:58;;;;;;;9.55;3.03;;;;;;;;;;5031477;28;20091;-65
2022/04/08 12:12:28;;;;;;;6.63;2.90;;;;;;;;;;5037864;28;20032;-65
2022/04/08 12:14:54;;;;;;;7.87;3.07;;;;;;;;;;5071318;28;20032;-66
2022/04/08 12:17:20;;;;;;;6.03;2.58;;;;;;;;;;5068262;28;20123;-66
2022/04/08 12:19:51;;;;;;;5.20;3.15;;;;;;;;;;5050711;28;20048;-69
2022/04/08 12:22:17;;;;;;;6.70;2.47;;;;;;;;;;5050560;28;20036;-65
2022/04/08 12:24:43;;;;;;;5.15;2.33;;;;;;;;;;5051032;28;20025;-67
2022/04/08 12:27:22;;;;;;;5.22;2.50;;;;;;;;;;5049016;28;20390;-64
2022/04/08 12:30:10;;;;;;;7.50;3.00;;;;;;;;;;5058203;28;20055;-67
2022/04/08 12:32:45;;;;;;;6.32;3.20;;;;;;;;;;5068596;28;20490;-65
2022/04/08 12:35:12;;;;;;;7.25;3.05;;;;;;;;;;5043136;28;20076;-64
2022/04/08 12:37:38;;;;;;;7.82;3.70;;;;;;;;;;5055495;28;20033;-65
2022/04/08 12:40:05;;;;;;;5.07;3.10;;;;;;;;;;5057460;28;20537;-66
2022/04/08 12:42:35;;;;;;;5.80;2.80;;;;;;;;;;5048509;28;20490;-64
2022/04/08 12:45:01;;;;;;;3.92;2.22;;;;;;;;;;5049879;28;20029;-65
2022/04/08 12:47:26;;;;;;;7.13;2.58;;;;;;;;;;5055921;28;20039;-65
2022/04/08 12:49:51;;;;;;;6.75;3.63;;;;;;;;;;5051988;28;20029;-64
2022/04/08 12:52:17;;;;;;;5.40;2.75;;;;;;;;;;5053920;28;20519;-64
2022/04/08 12:54:42;;;;;;;6.82;3.20;;;;;;;;;;5045920;28;20444;-65
2022/04/08 12:57:07;;;;;;;8.38;3.85;;;;;;;;;;5034476;28;20117;-64
2022/04/08 12:59:33;;;;;;;6.32;2.90;;;;;;;;;;5033779;28;20029;-64
2022/04/08 13:01:58;;;;;;;7.65;3.30;;;;;;;;;;5035030;28;20056;-64
2022/04/08 13:04:24;;;;;;;6.80;2.80;;;;;;;;;;5052571;28;20107;-64
2022/04/08 13:06:52;;;;;;;4.03;2.35;;;;;;;;;;5055520;28;20183;-64
2022/04/08 13:09:19;;;;;;;7.53;3.50;;;;;;;;;;5053469;28;20035;-67
2022/04/08 13:11:46;;;;;;;7.15;3.35;;;;;;;;;;5051130;28;20053;-64
2022/04/08 13:14:12;;;;;;;4.72;2.60;;;;;;;;;;5051782;28;20086;-64
2022/04/08 13:16:37;;;;;;;17.73;8.68;;;;;;;;;;5065944;28;20420;-64
2022/04/08 13:19:02;;;;;;;14.35;7.40;;;;;;;;;;5061228;28;20394;-64
2022/04/08 13:21:28;;;;;;;8.07;3.33;;;;;;;;;;5052225;28;20045;-65
2022/04/08 13:23:53;;;;;;;8.30;2.70;;;;;;;;;;5054258;28;20021;-64
2022/04/08 13:26:20;;;;;;;6.47;2.72;;;;;;;;;;5062627;28;20059;-64
2022/04/08 13:28:45;;;;;;;7.28;3.00;;;;;;;;;;5072997;28;20048;-64
2022/04/08 13:31:10;;;;;;;5.45;2.58;;;;;;;;;;5073556;28;20454;-64
2022/04/08 13:33:36;;;;;;;5.55;2.30;;;;;;;;;;5068998;28;20501;-64
2022/04/08 13:36:02;;;;;;;5.68;2.40;;;;;;;;;;5053295;28;20029;-64
2022/04/08 13:38:27;;;;;;;5.63;2.10;;;;;;;;;;5054140;28;20080;-64
2022/04/08 13:40:53;;;;;;;6.90;1.77;;;;;;;;;;5053573;28;20112;-64
2022/04/08 13:43:18;;;;;;;5.25;1.90;;;;;;;;;;5059069;28;20347;-64
2022/04/08 13:45:44;;;;;;;5.22;1.80;;;;;;;;;;5072728;28;20115;-64
2022/04/08 13:48:09;;;;;;;5.15;2.10;;;;;;;;;;5068761;28;20032;-64
2022/04/08 13:50:34;;;;;;;5.63;2.10;;;;;;;;;;5054918;28;20037;-64
2022/04/08 13:53:00;;;;;;;3.90;1.92;;;;;;;;;;5052151;28;20048;-65
2022/04/08 13:55:25;;;;;;;5.72;1.92;;;;;;;;;;5052178;28;20040;-65
2022/04/08 13:57:51;;;;;;;4.97;1.90;;;;;;;;;;5052253;28;20032;-65
2022/04/08 14:00:17;;;;;;;5.00;1.80;;;;;;;;;;5060500;28;20040;-64
2022/04/08 14:02:43;;;;;;;6.35;2.40;;;;;;;;;;5073762;28;20497;-65
2022/04/08 14:05:09;;;;;;;3.42;1.83;;;;;;;;;;5069095;28;20081;-65
2022/04/08 14:07:34;;;;;;;5.10;2.33;;;;;;;;;;5073979;28;20455;-65
2022/04/08 14:10:00;;;;;;;9.75;2.42;;;;;;;;;;5066623;28;20025;-65
2022/04/08 14:12:26;;;;;;;5.60;2.13;;;;;;;;;;5052417;28;20139;-65
2022/04/08 14:14:52;;;;;;;6.97;2.28;;;;;;;;;;5053689;28;20029;-65
2022/04/08 14:17:18;;;;;;;4.95;2.00;;;;;;;;;;5052320;28;20159;-66
2022/04/08 14:19:44;;;;;;;5.68;2.22;;;;;;;;;;5060164;28;20409;-65
2022/04/08 14:22:10;;;;;;;4.25;1.85;;;;;;;;;;5071524;28;20024;-65
2022/04/08 14:24:36;;;;;;;7.38;2.28;;;;;;;;;;5073207;28;20025;-65
2022/04/08 14:27:01;;;;;;;5.00;2.08;;;;;;;;;;5073860;28;20074;-66
2022/04/08 14:29:26;;;;;;;5.63;2.13;;;;;;;;;;5066395;28;20037;-65
2022/04/08 14:31:52;;;;;;;5.35;2.05;;;;;;;;;;5057540;28;20423;-65
2022/04/08 14:34:17;;;;;;;4.30;2.08;;;;;;;;;;5058519;28;20533;-65
2022/04/08 14:36:43;;;;;;;3.25;1.80;;;;;;;;;;5071399;28;20378;-65
2022/04/08 14:39:08;;;;;;;8.18;2.42;;;;;;;;;;5072217;28;20036;-66
2022/04/08 14:41:34;;;;;;;5.88;2.20;;;;;;;;;;5071099;28;20020;-65